< Typhoon 199231 1993 Season Typhoon 199302 >
Typhoon 199301 (IRMA)
General InformationTrack Information on Google MapsDetailed Wind InformationList of All Images || Disaster Info.ResourceGoogle EarthGE AnimationAtom FeedGeoJSON
Detalied Best Track (Time Zone = UTC)
Year Month Day Hour Lat. Long. Pressure (hPa) Wind (kt) Class Image Chart
1993 3 9 12 5.0 165.1 1004 0 2 Image Chart
1993 3 9 18 5.0 164.8 1004 0 2 Image Chart
1993 3 10 00 5.1 164.5 1004 0 2 Image Chart
1993 3 10 06 5.2 164.3 1002 0 2 Image Chart
1993 3 10 12 5.1 164.1 1002 0 2 Image Chart
1993 3 10 18 5.0 163.7 1002 0 2 Image Chart
1993 3 11 00 4.8 163.0 1002 0 2 Image Chart
1993 3 11 06 4.7 162.8 1000 0 2 Image Chart
1993 3 11 12 4.5 162.7 1000 0 2 Image Chart
1993 3 11 18 4.3 162.6 1000 0 2 Image Chart
1993 3 12 00 4.2 162.5 1000 0 2 Image Chart
1993 3 12 06 4.3 162.3 1000 0 2 Image Chart
1993 3 12 12 4.7 161.7 1000 0 2 Image Chart
1993 3 12 18 5.2 160.8 1000 0 2 Image Chart
1993 3 13 00 6.5 159.5 1000 0 2 Image Chart
1993 3 13 06 7.7 158.1 1000 35 3 Image Chart
1993 3 13 12 8.6 156.9 996 35 3 Image Chart
1993 3 13 18 9.7 155.7 992 40 3 Image Chart
1993 3 14 00 10.8 154.6 990 45 3 Image Chart
1993 3 14 06 11.6 153.3 990 45 3 Image Chart
1993 3 14 12 12.2 152.2 990 45 3 Image Chart
1993 3 14 18 12.7 151.4 990 45 3 Image Chart
1993 3 15 00 13.2 150.5 990 45 3 Image Chart
1993 3 15 06 13.6 149.9 990 45 3 Image Chart
1993 3 15 12 14.3 149.6 990 45 3 Image Chart
1993 3 15 18 15.1 149.7 985 50 4 Image Chart
1993 3 16 00 15.8 150.0 985 50 4 Image Chart
1993 3 16 06 16.4 150.5 985 50 4 Image Chart
1993 3 16 12 16.7 150.8 985 50 4 Image Chart
1993 3 16 18 17.0 151.1 990 45 3 Image Chart
1993 3 17 00 17.3 151.3 994 40 3 Image Chart
1993 3 17 06 17.5 151.5 998 35 3 Image Chart
1993 3 17 12 17.7 151.6 1000 0 2 Image Chart
1993 3 17 18 17.9 151.7 1004 0 2 Image Chart
1993 3 18 00 18.1 151.8 1008 0 2 Image Chart
1993 3 18 06 18.3 152.0 1008 0 2 Image Chart
1993 3 18 12 18.6 152.4 1010 0 2 Image Chart
1993 3 18 18 19.0 152.7 1010 0 2 Image Chart
1993 3 19 00 19.4 153.0 1012 0 2 Image Chart
Japan Meteorological Agency Best Track Data | Correction Date : 1994-01-10
< Typhoon 199231 1993 Season Typhoon 199302 >

Help